createdAt,value
2019-03-30T00:01:53.514Z,2.10
2019-03-30T00:04:23.940Z,2.53
2019-03-30T00:06:54.341Z,2.30
2019-03-30T00:09:25.501Z,2.33
2019-03-30T00:11:57.859Z,2.77
2019-03-30T00:14:27.693Z,2.47
2019-03-30T00:16:58.108Z,2.27
2019-03-30T00:19:34.798Z,2.30
2019-03-30T00:22:00.497Z,2.20
2019-03-30T00:24:30.836Z,2.03
2019-03-30T00:27:01.248Z,2.43
2019-03-30T00:29:31.572Z,2.10
2019-03-30T00:32:01.892Z,2.10
2019-03-30T00:34:32.233Z,2.07
2019-03-30T00:37:02.794Z,2.40
2019-03-30T00:39:32.995Z,1.97
2019-03-30T00:42:03.228Z,2.13
2019-03-30T00:44:33.432Z,1.90
2019-03-30T00:47:03.741Z,2.37
2019-03-30T00:49:33.936Z,1.93
2019-03-30T00:52:04.280Z,2.23
2019-03-30T00:54:34.515Z,1.90
2019-03-30T00:57:05.014Z,2.13
2019-03-30T00:59:35.477Z,2.03
2019-03-30T01:02:05.683Z,1.90
2019-03-30T01:04:35.874Z,2.10
2019-03-30T01:07:06.127Z,1.90
2019-03-30T01:09:36.506Z,1.80
2019-03-30T01:12:06.876Z,1.53
2019-03-30T01:14:37.307Z,1.93
2019-03-30T01:17:08.029Z,1.60
2019-03-30T01:19:38.368Z,1.70
2019-03-30T01:22:08.806Z,1.90
2019-03-30T01:24:39.115Z,2.13
2019-03-30T01:27:09.441Z,1.63
2019-03-30T01:29:39.697Z,1.60
2019-03-30T01:32:09.989Z,1.87
2019-03-30T01:34:40.276Z,1.50
2019-03-30T01:37:10.659Z,1.60
2019-03-30T01:39:40.966Z,1.87
2019-03-30T01:42:11.184Z,2.03
2019-03-30T01:44:41.611Z,1.90
2019-03-30T01:47:12.221Z,1.57
2019-03-30T01:49:42.564Z,2.10
2019-03-30T01:52:12.818Z,1.50
2019-03-30T01:54:43.124Z,1.50
2019-03-30T01:57:13.536Z,1.73
2019-03-30T01:59:43.865Z,1.50
2019-03-30T02:02:14.086Z,1.43
2019-03-30T02:04:44.411Z,1.77
2019-03-30T02:07:14.837Z,1.60
2019-03-30T02:09:45.173Z,1.70
2019-03-30T02:12:15.605Z,1.90
2019-03-30T02:14:46.016Z,1.80
2019-03-30T02:17:16.540Z,1.77
2019-03-30T02:19:46.921Z,1.47
2019-03-30T02:22:17.413Z,1.40
2019-03-30T02:24:47.653Z,1.60
2019-03-30T02:27:18.047Z,1.93
2019-03-30T02:29:48.478Z,1.50
2019-03-30T02:32:18.810Z,1.47
2019-03-30T02:34:49.191Z,1.50
2019-03-30T02:37:19.519Z,1.43
2019-03-30T02:39:49.976Z,1.80
2019-03-30T02:42:20.505Z,1.60
2019-03-30T02:44:50.840Z,1.80
2019-03-30T02:47:21.261Z,1.50
2019-03-30T02:49:51.580Z,1.40
2019-03-30T02:52:21.922Z,1.43
2019-03-30T02:54:52.240Z,1.30
2019-03-30T02:57:22.776Z,1.60
2019-03-30T02:59:53.080Z,1.40
2019-03-30T03:02:23.338Z,1.37
2019-03-30T03:04:53.630Z,1.43
2019-03-30T03:07:24.053Z,1.40
2019-03-30T03:09:54.324Z,1.43
2019-03-30T03:12:24.701Z,1.40
2019-03-30T03:14:55.139Z,1.40
2019-03-30T03:17:25.645Z,1.50
2019-03-30T03:19:56.002Z,1.50
2019-03-30T03:22:26.345Z,1.20
2019-03-30T03:24:56.750Z,1.40
2019-03-30T03:27:27.373Z,1.50
2019-03-30T03:29:57.617Z,1.33
2019-03-30T03:32:27.935Z,1.30
2019-03-30T03:34:58.260Z,1.33
2019-03-30T03:37:43.503Z,1.33
2019-03-30T03:40:00.758Z,1.93
2019-03-30T03:42:31.139Z,1.20
2019-03-30T03:45:01.595Z,1.20
2019-03-30T03:47:32.129Z,1.53
2019-03-30T03:50:02.450Z,1.60
2019-03-30T03:52:32.657Z,1.30
2019-03-30T03:55:02.981Z,1.53
2019-03-30T03:57:34.861Z,1.30
2019-03-30T04:00:05.207Z,1.50
2019-03-30T04:02:37.595Z,1.67
2019-03-30T04:05:09.511Z,1.40
2019-03-30T04:07:42.384Z,1.50
2019-03-30T04:10:12.864Z,1.30
2019-03-30T04:12:44.447Z,1.40
2019-03-30T04:15:25.855Z,1.57
2019-03-30T04:17:56.181Z,1.50
2019-03-30T04:20:26.513Z,1.43
2019-03-30T04:22:56.825Z,1.40
2019-03-30T04:25:27.087Z,1.40
2019-03-30T04:27:57.698Z,1.50
2019-03-30T04:30:28.000Z,1.70
2019-03-30T04:32:58.452Z,1.53
2019-03-30T04:35:28.885Z,1.23
2019-03-30T04:37:59.228Z,1.70
2019-03-30T04:40:29.523Z,1.40
2019-03-30T04:42:59.876Z,1.40
2019-03-30T04:45:30.568Z,1.40
2019-03-30T04:48:00.788Z,1.30
2019-03-30T04:50:31.109Z,1.30
2019-03-30T04:53:01.447Z,1.57
2019-03-30T04:55:31.968Z,1.20
2019-03-30T04:58:02.411Z,1.47
2019-03-30T05:00:32.824Z,1.40
2019-03-30T05:03:03.263Z,1.30
2019-03-30T05:05:33.672Z,1.27
2019-03-30T05:08:03.996Z,1.47
2019-03-30T05:10:34.243Z,1.30
2019-03-30T05:13:04.543Z,1.30
2019-03-30T05:15:34.877Z,1.60
2019-03-30T05:18:05.318Z,1.50
2019-03-30T05:20:35.616Z,1.63
2019-03-30T05:23:06.061Z,1.20
2019-03-30T05:25:36.962Z,1.60
2019-03-30T05:28:07.357Z,1.37
2019-03-30T05:30:37.732Z,1.50
2019-03-30T05:33:08.000Z,1.60
2019-03-30T05:35:38.289Z,1.63
2019-03-30T05:38:08.575Z,1.67
2019-03-30T05:40:38.935Z,1.27
2019-03-30T05:43:09.251Z,1.60
2019-03-30T05:45:39.585Z,1.57
2019-03-30T05:48:09.800Z,1.40
2019-03-30T05:50:40.243Z,1.20
2019-03-30T05:53:10.553Z,1.83
2019-03-30T05:55:40.847Z,1.43
2019-03-30T05:58:11.201Z,1.60
2019-03-30T06:00:41.525Z,1.50
2019-03-30T06:03:11.850Z,1.40
2019-03-30T06:05:42.179Z,1.43
2019-03-30T06:08:12.620Z,1.50
2019-03-30T06:10:42.950Z,1.70
2019-03-30T06:13:13.253Z,1.47
2019-03-30T06:15:43.674Z,1.67
2019-03-30T06:18:14.108Z,1.50
2019-03-30T06:20:44.540Z,1.37
2019-03-30T06:23:14.851Z,1.57
2019-03-30T06:25:45.280Z,1.40
2019-03-30T06:28:15.618Z,1.87
2019-03-30T06:30:45.808Z,1.30
2019-03-30T06:33:16.052Z,1.33
2019-03-30T06:35:46.428Z,1.80
2019-03-30T06:38:17.163Z,1.77
2019-03-30T06:40:47.587Z,2.10
2019-03-30T06:43:17.810Z,2.87
2019-03-30T06:45:48.261Z,2.37
2019-03-30T06:48:18.532Z,2.60
2019-03-30T06:50:48.778Z,2.27
2019-03-30T06:53:19.162Z,2.83
2019-03-30T06:55:49.491Z,2.53
2019-03-30T06:58:19.933Z,2.80
2019-03-30T07:00:50.303Z,3.70
2019-03-30T07:03:20.572Z,4.10
2019-03-30T07:05:50.972Z,4.90
2019-03-30T07:08:21.182Z,4.10
2019-03-30T07:10:51.536Z,4.37
2019-03-30T07:13:22.163Z,4.00
2019-03-30T07:15:52.490Z,3.77
2019-03-30T07:18:22.760Z,3.27
2019-03-30T07:20:53.031Z,3.40
2019-03-30T07:23:22.306Z,3.53
2019-03-30T07:25:53.350Z,3.07
2019-03-30T07:28:24.234Z,2.80
2019-03-30T07:30:55.047Z,2.93
2019-03-30T07:33:25.873Z,2.73
2019-03-30T07:35:57.244Z,2.80
2019-03-30T07:38:27.675Z,2.77
2019-03-30T07:40:57.955Z,2.83
2019-03-30T07:43:28.204Z,2.77
2019-03-30T07:45:58.518Z,2.50
2019-03-30T07:48:28.756Z,2.30
2019-03-30T07:50:58.942Z,2.47
2019-03-30T07:53:29.244Z,2.73
2019-03-30T07:56:08.354Z,2.53
2019-03-30T07:58:31.369Z,2.83
2019-03-30T08:01:01.572Z,2.60
2019-03-30T08:03:31.853Z,2.73
2019-03-30T08:06:02.117Z,4.20
2019-03-30T08:08:32.375Z,4.53
2019-03-30T08:11:02.662Z,4.70
2019-03-30T08:13:32.924Z,4.40
2019-03-30T08:16:03.270Z,4.33
2019-03-30T08:18:33.568Z,4.37
2019-03-30T08:21:03.757Z,4.03
2019-03-30T08:23:40.251Z,4.23
2019-03-30T08:26:06.046Z,3.97
2019-03-30T08:28:36.369Z,4.40
2019-03-30T08:31:06.724Z,3.73
2019-03-30T08:33:37.060Z,4.17
2019-03-30T08:36:07.492Z,3.87
2019-03-30T08:38:37.847Z,4.10
2019-03-30T08:41:08.071Z,3.70
2019-03-30T08:43:41.224Z,3.33
2019-03-30T08:46:11.688Z,3.67
2019-03-30T08:48:42.516Z,3.23
2019-03-30T08:51:12.703Z,3.20
2019-03-30T08:53:53.929Z,3.37
2019-03-30T08:56:15.087Z,3.33
2019-03-30T08:58:45.395Z,3.57
2019-03-30T09:01:15.647Z,3.50
2019-03-30T09:03:45.984Z,3.25
2019-03-30T09:06:16.272Z,3.10
2019-03-30T09:08:46.520Z,3.37
2019-03-30T09:11:16.919Z,3.60
2019-03-30T09:13:46.231Z,3.57
2019-03-30T09:16:16.600Z,3.47
2019-03-30T09:18:47.001Z,3.20
2019-03-30T09:21:17.310Z,4.20
2019-03-30T09:23:47.681Z,4.10
2019-03-30T09:26:18.044Z,4.03
2019-03-30T09:28:48.420Z,2.90
2019-03-30T09:31:18.758Z,2.90
2019-03-30T09:33:49.144Z,3.37
2019-03-30T09:36:19.566Z,2.93
2019-03-30T09:38:50.292Z,2.87
2019-03-30T09:41:19.800Z,3.00
2019-03-30T09:43:50.041Z,3.20
2019-03-30T09:46:19.560Z,3.23
2019-03-30T09:48:49.124Z,3.27
2019-03-30T09:51:19.324Z,5.77
2019-03-30T09:53:52.351Z,4.50
2019-03-30T09:56:22.772Z,3.60
2019-03-30T09:58:53.041Z,3.07
2019-03-30T10:01:23.409Z,3.03
2019-03-30T10:03:54.588Z,3.10
2019-03-30T10:06:33.934Z,3.57
2019-03-30T10:08:56.997Z,2.60
2019-03-30T10:11:27.325Z,3.00
2019-03-30T10:13:57.852Z,2.70
2019-03-30T10:16:28.232Z,3.23
2019-03-30T10:18:58.572Z,3.03
2019-03-30T10:21:28.815Z,2.67
2019-03-30T10:23:59.083Z,2.30
2019-03-30T10:26:29.475Z,3.10
2019-03-30T10:29:01.644Z,3.03
2019-03-30T10:31:31.996Z,2.80
2019-03-30T10:34:04.076Z,2.73
2019-03-30T10:36:34.893Z,2.30
2019-03-30T10:39:07.378Z,2.57
2019-03-30T10:41:37.899Z,3.30
2019-03-30T10:44:08.288Z,3.83
2019-03-30T10:46:38.680Z,3.07
2019-03-30T10:49:08.975Z,3.30
2019-03-30T10:51:39.356Z,2.97
2019-03-30T10:54:09.673Z,3.03
2019-03-30T10:56:40.094Z,2.57
2019-03-30T10:59:10.444Z,2.70
2019-03-30T11:01:40.672Z,3.17
2019-03-30T11:04:10.895Z,2.90
2019-03-30T11:06:41.381Z,2.57
2019-03-30T11:09:11.960Z,2.87
2019-03-30T11:11:42.301Z,3.03
2019-03-30T11:14:12.600Z,2.60
2019-03-30T11:16:42.885Z,3.07
2019-03-30T11:19:13.100Z,2.80
2019-03-30T11:21:43.430Z,2.57
2019-03-30T11:24:13.647Z,2.77
2019-03-30T11:26:45.299Z,3.47
2019-03-30T11:29:15.680Z,4.03
2019-03-30T11:31:45.953Z,3.47
2019-03-30T11:34:16.221Z,3.53
2019-03-30T11:36:46.531Z,2.90
2019-03-30T11:39:16.820Z,2.97
2019-03-30T11:41:47.115Z,3.07
2019-03-30T11:44:17.456Z,3.37
2019-03-30T11:46:47.769Z,3.20
2019-03-30T11:49:18.145Z,2.90
2019-03-30T11:51:48.493Z,3.33
2019-03-30T11:54:18.803Z,3.77
2019-03-30T11:56:49.407Z,4.00
2019-03-30T11:59:19.691Z,4.30
2019-03-30T12:01:50.019Z,6.40
2019-03-30T12:04:20.277Z,7.07
2019-03-30T12:06:51.940Z,8.93
2019-03-30T12:09:22.383Z,8.90
2019-03-30T12:11:52.628Z,9.63
2019-03-30T12:14:22.888Z,10.33
2019-03-30T12:16:53.384Z,9.00
2019-03-30T12:19:23.636Z,12.10
2019-03-30T12:21:53.992Z,11.23
2019-03-30T12:24:24.323Z,11.40
2019-03-30T12:26:55.664Z,11.87
2019-03-30T12:29:26.069Z,10.43
2019-03-30T12:31:56.507Z,11.00
2019-03-30T12:34:26.846Z,9.77
2019-03-30T12:36:57.475Z,9.23
2019-03-30T12:39:27.764Z,10.20
2019-03-30T12:41:58.047Z,9.50
2019-03-30T12:44:28.569Z,10.43
2019-03-30T12:46:58.967Z,8.97
2019-03-30T12:49:29.504Z,9.53
2019-03-30T12:51:59.963Z,9.20
2019-03-30T12:54:30.287Z,9.37
2019-03-30T12:57:00.718Z,7.97
2019-03-30T12:59:31.246Z,8.13
2019-03-30T13:02:01.645Z,7.67
2019-03-30T13:04:32.022Z,9.03
2019-03-30T13:07:02.353Z,7.73
2019-03-30T13:09:34.777Z,8.00
2019-03-30T13:12:04.688Z,7.50
2019-03-30T13:14:35.192Z,7.73
2019-03-30T13:17:05.736Z,6.70
2019-03-30T13:19:36.168Z,7.80
2019-03-30T13:22:06.523Z,7.57
2019-03-30T13:24:36.798Z,7.17
2019-03-30T13:27:07.169Z,6.60
2019-03-30T13:29:37.576Z,6.23
2019-03-30T13:32:07.900Z,6.67
2019-03-30T13:34:38.139Z,5.60
2019-03-30T13:37:26.345Z,6.10
2019-03-30T13:39:56.672Z,6.03
2019-03-30T13:42:26.928Z,5.43
2019-03-30T13:44:57.398Z,5.50
2019-03-30T13:47:27.751Z,5.27
2019-03-30T13:49:59.272Z,5.10
2019-03-30T13:52:29.666Z,4.73
2019-03-30T13:54:59.871Z,5.30
2019-03-30T13:57:30.408Z,5.00
2019-03-30T14:00:00.736Z,4.80
2019-03-30T14:02:31.093Z,5.00
2019-03-30T14:05:01.502Z,4.87
2019-03-30T14:07:31.836Z,4.30
2019-03-30T14:10:02.610Z,4.00
2019-03-30T14:12:32.926Z,4.60
2019-03-30T14:15:03.266Z,5.10
2019-03-30T14:17:33.644Z,4.97
2019-03-30T14:20:04.070Z,4.70
2019-03-30T14:22:35.681Z,5.43
2019-03-30T14:25:06.769Z,4.77
2019-03-30T14:27:37.261Z,4.80
2019-03-30T14:30:07.840Z,4.77
2019-03-30T14:32:38.294Z,4.27
2019-03-30T14:35:08.663Z,4.20
2019-03-30T14:37:39.065Z,4.03
2019-03-30T14:40:09.348Z,4.40
2019-03-30T14:42:39.877Z,4.17
2019-03-30T14:45:10.221Z,4.30
2019-03-30T14:47:40.692Z,4.07
2019-03-30T14:50:11.079Z,4.60
2019-03-30T14:52:41.428Z,4.40
2019-03-30T14:55:11.764Z,3.73
2019-03-30T14:57:42.165Z,4.20
2019-03-30T15:00:12.715Z,3.77
2019-03-30T15:02:43.079Z,3.77
2019-03-30T15:05:13.368Z,4.60
2019-03-30T15:07:43.689Z,4.07
2019-03-30T15:10:14.008Z,3.77
2019-03-30T15:12:44.374Z,3.60
2019-03-30T15:15:16.908Z,4.57
2019-03-30T15:17:47.278Z,4.50
2019-03-30T15:20:17.676Z,3.60
2019-03-30T15:22:47.994Z,3.50
2019-03-30T15:25:18.240Z,3.87
2019-03-30T15:27:48.615Z,3.70
2019-03-30T15:30:18.911Z,3.30
2019-03-30T15:32:49.161Z,3.70
2019-03-30T15:35:19.523Z,3.60
2019-03-30T15:37:49.957Z,3.87
2019-03-30T15:40:20.195Z,3.50
2019-03-30T15:42:52.305Z,2.90
2019-03-30T15:45:22.900Z,2.83
2019-03-30T15:47:53.185Z,2.87
2019-03-30T15:50:23.496Z,3.37
2019-03-30T15:52:53.764Z,3.30
2019-03-30T15:55:23.998Z,3.00
2019-03-30T15:57:54.247Z,3.33
2019-03-30T16:00:24.603Z,2.80
2019-03-30T16:02:54.985Z,2.53
2019-03-30T16:05:25.272Z,2.90
2019-03-30T16:07:55.772Z,3.40
2019-03-30T16:10:26.205Z,3.03
2019-03-30T16:12:57.755Z,2.77
2019-03-30T16:15:28.136Z,2.60
2019-03-30T16:18:18.001Z,3.17
2019-03-30T16:20:48.387Z,3.10
2019-03-30T16:23:18.771Z,2.60
2019-03-30T16:25:49.527Z,2.70
2019-03-30T16:28:19.798Z,2.77
2019-03-30T16:30:50.105Z,2.50
2019-03-30T16:33:20.378Z,2.70
2019-03-30T16:35:51.037Z,2.63
2019-03-30T16:38:21.302Z,2.70
2019-03-30T16:40:51.729Z,2.80
2019-03-30T16:43:21.980Z,2.70
2019-03-30T16:45:52.329Z,2.90
2019-03-30T16:48:22.696Z,2.97
2019-03-30T16:50:52.997Z,2.80
2019-03-30T16:53:23.193Z,2.40
2019-03-30T16:55:53.555Z,3.07
2019-03-30T16:58:23.883Z,3.10
2019-03-30T17:00:56.683Z,2.60
2019-03-30T17:03:26.460Z,2.87
2019-03-30T17:05:56.823Z,2.87
2019-03-30T17:08:27.068Z,2.90
2019-03-30T17:10:57.279Z,3.20
2019-03-30T17:13:27.640Z,3.10
2019-03-30T17:15:58.682Z,2.77
2019-03-30T17:18:29.056Z,2.83
2019-03-30T17:21:18.125Z,3.50
2019-03-30T17:23:48.543Z,2.87
2019-03-30T17:26:18.843Z,3.00
2019-03-30T17:28:49.233Z,2.63
2019-03-30T17:31:19.532Z,2.50
2019-03-30T17:33:50.309Z,2.80
2019-03-30T17:36:20.641Z,3.30
2019-03-30T17:38:50.949Z,3.10
2019-03-30T17:41:21.206Z,2.90
2019-03-30T17:43:51.565Z,2.80
2019-03-30T17:46:21.871Z,2.47
2019-03-30T17:48:52.192Z,3.10
2019-03-30T17:51:22.522Z,3.20
2019-03-30T17:53:52.883Z,3.30
2019-03-30T17:56:23.376Z,2.70
2019-03-30T17:58:53.676Z,2.80
2019-03-30T18:01:23.967Z,2.80
2019-03-30T18:03:54.293Z,2.70
2019-03-30T18:06:24.772Z,2.90
2019-03-30T18:08:55.078Z,3.10
2019-03-30T18:11:25.460Z,2.40
2019-03-30T18:13:58.555Z,2.67
2019-03-30T18:16:28.960Z,2.73
2019-03-30T18:18:59.371Z,2.70
2019-03-30T18:21:29.865Z,2.67
2019-03-30T18:24:00.318Z,2.33
2019-03-30T18:26:30.794Z,2.47
2019-03-30T18:29:01.211Z,2.40
2019-03-30T18:31:31.475Z,2.50
2019-03-30T18:34:01.723Z,2.50
2019-03-30T18:36:32.202Z,2.50
2019-03-30T18:39:09.245Z,2.50
2019-03-30T18:41:34.711Z,2.27
2019-03-30T18:44:05.353Z,2.07
2019-03-30T18:46:35.683Z,1.90
2019-03-30T18:49:06.146Z,2.30
2019-03-30T18:51:36.431Z,2.53
2019-03-30T18:54:06.756Z,2.50
2019-03-30T18:56:37.104Z,2.10
2019-03-30T18:59:07.509Z,2.20
2019-03-30T19:01:37.824Z,2.27
2019-03-30T19:04:08.077Z,3.00
2019-03-30T19:06:38.453Z,2.00
2019-03-30T19:09:09.337Z,2.00
2019-03-30T19:11:39.759Z,2.33
2019-03-30T19:14:10.025Z,2.33
2019-03-30T19:16:40.427Z,2.53
2019-03-30T19:19:10.819Z,2.50
2019-03-30T19:21:41.092Z,2.30
2019-03-30T19:24:12.990Z,2.17
2019-03-30T19:26:42.433Z,2.50
2019-03-30T19:29:11.890Z,2.27
2019-03-30T19:31:41.331Z,2.30
2019-03-30T19:34:10.815Z,2.03
2019-03-30T19:36:40.354Z,1.97
2019-03-30T19:39:09.748Z,2.03
2019-03-30T19:41:39.118Z,2.07
2019-03-30T19:44:08.677Z,1.90
2019-03-30T19:46:38.309Z,1.93
2019-03-30T19:49:08.715Z,2.10
2019-03-30T19:51:39.022Z,2.20
2019-03-30T19:54:09.267Z,1.67
2019-03-30T19:56:40.899Z,1.90
2019-03-30T19:59:11.563Z,2.43
2019-03-30T20:01:41.964Z,2.10
2019-03-30T20:04:12.239Z,2.30
2019-03-30T20:06:42.656Z,2.40
2019-03-30T20:09:12.957Z,1.97
2019-03-30T20:11:43.215Z,1.90
2019-03-30T20:14:13.531Z,2.20
2019-03-30T20:16:44.880Z,2.00
2019-03-30T20:19:15.153Z,2.20
2019-03-30T20:21:45.520Z,2.10
2019-03-30T20:24:17.245Z,2.13
2019-03-30T20:26:47.835Z,2.10
2019-03-30T20:29:25.079Z,1.60
2019-03-30T20:31:50.095Z,2.37
2019-03-30T20:34:20.393Z,1.80
2019-03-30T20:36:50.767Z,2.20
2019-03-30T20:39:21.086Z,2.10
2019-03-30T20:41:51.418Z,2.00
2019-03-30T20:44:21.751Z,2.30
2019-03-30T20:46:52.139Z,1.93
2019-03-30T20:49:22.480Z,2.20
2019-03-30T20:51:52.755Z,2.63
2019-03-30T20:54:22.985Z,2.33
2019-03-30T20:57:12.087Z,2.07
2019-03-30T20:59:42.391Z,2.10
2019-03-30T21:02:12.927Z,2.27
2019-03-30T21:04:43.251Z,2.20
2019-03-30T21:07:13.981Z,2.00
2019-03-30T21:09:44.341Z,2.23
2019-03-30T21:12:14.654Z,2.27
2019-03-30T21:14:44.944Z,2.43
2019-03-30T21:17:15.387Z,2.30
2019-03-30T21:19:46.831Z,2.20
2019-03-30T21:22:17.145Z,2.60
2019-03-30T21:24:47.328Z,2.50
2019-03-30T21:27:17.611Z,2.10
2019-03-30T21:29:54.402Z,2.30
2019-03-30T21:32:19.768Z,2.50
2019-03-30T21:34:50.014Z,2.77
2019-03-30T21:37:20.420Z,2.47
2019-03-30T21:39:50.659Z,2.30
2019-03-30T21:42:20.861Z,2.53
2019-03-30T21:44:51.080Z,2.50
2019-03-30T21:47:21.404Z,2.67
2019-03-30T21:49:51.627Z,2.77
2019-03-30T21:52:21.857Z,2.37
2019-03-30T21:54:52.040Z,2.53
2019-03-30T21:57:22.844Z,2.73
2019-03-30T22:00:08.719Z,2.70
2019-03-30T22:02:26.368Z,2.80
2019-03-30T22:04:56.644Z,2.53
2019-03-30T22:07:27.380Z,2.63
2019-03-30T22:09:58.014Z,2.33
2019-03-30T22:12:28.337Z,2.57
2019-03-30T22:14:58.675Z,2.37
2019-03-30T22:17:29.195Z,2.53
2019-03-30T22:19:59.382Z,2.37
2019-03-30T22:22:29.558Z,2.70
2019-03-30T22:25:00.746Z,2.37
2019-03-30T22:27:30.967Z,2.63
2019-03-30T22:30:01.341Z,2.57
2019-03-30T22:32:31.653Z,2.33
2019-03-30T22:35:02.022Z,2.30
2019-03-30T22:37:32.299Z,2.23
2019-03-30T22:40:02.623Z,2.30
2019-03-30T22:42:32.953Z,2.50
2019-03-30T22:45:03.237Z,2.20
2019-03-30T22:47:33.450Z,2.47
2019-03-30T22:50:03.737Z,2.47
2019-03-30T22:52:34.045Z,1.97
2019-03-30T22:55:04.367Z,2.10
2019-03-30T22:57:34.793Z,1.97
2019-03-30T23:00:06.345Z,2.30
2019-03-30T23:02:38.409Z,2.30
2019-03-30T23:05:08.612Z,2.63
2019-03-30T23:07:38.923Z,2.23
2019-03-30T23:10:09.282Z,2.47
2019-03-30T23:12:39.597Z,2.33
2019-03-30T23:15:09.928Z,2.37
2019-03-30T23:17:40.279Z,2.10
2019-03-30T23:20:10.599Z,2.13
2019-03-30T23:22:40.920Z,1.90
2019-03-30T23:25:11.119Z,2.17
2019-03-30T23:27:41.565Z,2.23
2019-03-30T23:30:12.604Z,2.30
2019-03-30T23:32:42.919Z,2.07
2019-03-30T23:35:13.206Z,1.90
2019-03-30T23:37:43.500Z,2.10
2019-03-30T23:40:14.016Z,2.50
2019-03-30T23:42:44.434Z,2.20
2019-03-30T23:45:14.640Z,2.27
2019-03-30T23:47:44.988Z,2.03
2019-03-30T23:50:15.293Z,2.10
2019-03-30T23:52:45.492Z,2.10
2019-03-30T23:55:15.734Z,2.07
2019-03-30T23:57:46.775Z,2.17
